sensor_id;sensor_type;location;lat;lon;timestamp;temperature;humidity
64484;DHT22;50862;51.642;7.964;2022-09-01T00:00:44;15.50;65.10
64484;DHT22;50862;51.642;7.964;2022-09-01T00:03:15;15.60;66.60
64484;DHT22;50862;51.642;7.964;2022-09-01T00:08:12;15.50;65.80
64484;DHT22;50862;51.642;7.964;2022-09-01T00:13:15;15.60;66.50
64484;DHT22;50862;51.642;7.964;2022-09-01T00:18:12;14.50;67.70
64484;DHT22;50862;51.642;7.964;2022-09-01T00:23:10;15.50;69.50
64484;DHT22;50862;51.642;7.964;2022-09-01T00:25:38;15.40;68.10
64484;DHT22;50862;51.642;7.964;2022-09-01T00:30:36;14.80;68.30
64484;DHT22;50862;51.642;7.964;2022-09-01T00:38:03;14.30;70.30
64484;DHT22;50862;51.642;7.964;2022-09-01T00:45:28;15.00;71.50
64484;DHT22;50862;51.642;7.964;2022-09-01T00:47:58;14.20;69.80
64484;DHT22;50862;51.642;7.964;2022-09-01T00:52:56;14.70;70.20
64484;DHT22;50862;51.642;7.964;2022-09-01T00:55:27;14.50;70.30
64484;DHT22;50862;51.642;7.964;2022-09-01T00:57:59;14.70;70.50
64484;DHT22;50862;51.642;7.964;2022-09-01T01:00:29;14.70;70.50
64484;DHT22;50862;51.642;7.964;2022-09-01T01:02:59;14.00;70.00
64484;DHT22;50862;51.642;7.964;2022-09-01T01:05:31;14.80;71.10
64484;DHT22;50862;51.642;7.964;2022-09-01T01:08:01;14.60;71.40
64484;DHT22;50862;51.642;7.964;2022-09-01T01:10:37;15.10;74.40
64484;DHT22;50862;51.642;7.964;2022-09-01T01:13:08;14.10;71.50
64484;DHT22;50862;51.642;7.964;2022-09-01T01:18:11;14.50;71.80
64484;DHT22;50862;51.642;7.964;2022-09-01T01:20:42;14.50;72.50
64484;DHT22;50862;51.642;7.964;2022-09-01T01:23:36;14.40;72.40
64484;DHT22;50862;51.642;7.964;2022-09-01T01:26:08;14.10;75.30
64484;DHT22;50862;51.642;7.964;2022-09-01T01:28:39;14.30;73.80
64484;DHT22;50862;51.642;7.964;2022-09-01T01:31:10;14.20;76.40
64484;DHT22;50862;51.642;7.964;2022-09-01T01:33:41;14.50;74.80
64484;DHT22;50862;51.642;7.964;2022-09-01T01:36:13;14.30;75.00
64484;DHT22;50862;51.642;7.964;2022-09-01T01:38:45;14.20;76.00
64484;DHT22;50862;51.642;7.964;2022-09-01T01:41:16;14.40;76.00
64484;DHT22;50862;51.642;7.964;2022-09-01T01:43:46;14.20;76.00
64484;DHT22;50862;51.642;7.964;2022-09-01T01:46:17;14.60;76.80
64484;DHT22;50862;51.642;7.964;2022-09-01T01:51:19;14.40;78.50
64484;DHT22;50862;51.642;7.964;2022-09-01T01:53:50;14.10;75.80
64484;DHT22;50862;51.642;7.964;2022-09-01T01:56:22;13.80;76.40
64484;DHT22;50862;51.642;7.964;2022-09-01T01:58:52;14.30;79.60
64484;DHT22;50862;51.642;7.964;2022-09-01T02:01:21;14.30;78.20
64484;DHT22;50862;51.642;7.964;2022-09-01T02:03:51;13.40;77.50
64484;DHT22;50862;51.642;7.964;2022-09-01T02:06:21;14.20;80.80
64484;DHT22;50862;51.642;7.964;2022-09-01T02:08:52;13.60;78.20
64484;DHT22;50862;51.642;7.964;2022-09-01T02:11:24;13.80;79.10
64484;DHT22;50862;51.642;7.964;2022-09-01T02:16:22;13.50;82.30
64484;DHT22;50862;51.642;7.964;2022-09-01T02:21:21;13.60;84.10
64484;DHT22;50862;51.642;7.964;2022-09-01T02:23:54;13.50;81.70
64484;DHT22;50862;51.642;7.964;2022-09-01T02:26:30;13.20;81.80
64484;DHT22;50862;51.642;7.964;2022-09-01T02:28:59;14.10;85.70
64484;DHT22;50862;51.642;7.964;2022-09-01T02:31:31;13.40;84.20
64484;DHT22;50862;51.642;7.964;2022-09-01T02:41:30;13.10;86.70
64484;DHT22;50862;51.642;7.964;2022-09-01T02:44:00;14.00;87.30
64484;DHT22;50862;51.642;7.964;2022-09-01T02:46:29;13.20;86.30
64484;DHT22;50862;51.642;7.964;2022-09-01T02:51:30;13.50;87.60
64484;DHT22;50862;51.642;7.964;2022-09-01T02:54:00;13.80;89.60
64484;DHT22;50862;51.642;7.964;2022-09-01T02:56:30;13.50;85.80
64484;DHT22;50862;51.642;7.964;2022-09-01T02:58:58;14.10;86.00
64484;DHT22;50862;51.642;7.964;2022-09-01T03:01:29;13.50;84.60
64484;DHT22;50862;51.642;7.964;2022-09-01T03:04:00;13.30;83.90
64484;DHT22;50862;51.642;7.964;2022-09-01T03:06:28;13.40;84.50
64484;DHT22;50862;51.642;7.964;2022-09-01T03:09:01;13.50;83.20
64484;DHT22;50862;51.642;7.964;2022-09-01T03:11:32;13.80;83.70
64484;DHT22;50862;51.642;7.964;2022-09-01T03:14:02;13.50;83.50
64484;DHT22;50862;51.642;7.964;2022-09-01T03:16:31;13.50;83.50
64484;DHT22;50862;51.642;7.964;2022-09-01T03:19:00;13.80;83.80
64484;DHT22;50862;51.642;7.964;2022-09-01T03:21:30;14.30;85.00
64484;DHT22;50862;51.642;7.964;2022-09-01T03:26:31;13.10;86.70
64484;DHT22;50862;51.642;7.964;2022-09-01T03:31:28;13.10;87.20
64484;DHT22;50862;51.642;7.964;2022-09-01T03:33:57;14.30;85.20
64484;DHT22;50862;51.642;7.964;2022-09-01T03:36:27;13.40;87.30
64484;DHT22;50862;51.642;7.964;2022-09-01T03:38:56;13.60;85.00
64484;DHT22;50862;51.642;7.964;2022-09-01T03:41:27;13.50;85.00
64484;DHT22;50862;51.642;7.964;2022-09-01T03:43:58;13.40;85.10
64484;DHT22;50862;51.642;7.964;2022-09-01T03:46:27;13.00;85.10
64484;DHT22;50862;51.642;7.964;2022-09-01T03:51:33;13.10;87.90
64484;DHT22;50862;51.642;7.964;2022-09-01T03:56:33;13.70;88.00
64484;DHT22;50862;51.642;7.964;2022-09-01T03:59:03;13.60;85.80
64484;DHT22;50862;51.642;7.964;2022-09-01T04:04:04;12.90;88.40
64484;DHT22;50862;51.642;7.964;2022-09-01T04:06:32;12.90;86.20
64484;DHT22;50862;51.642;7.964;2022-09-01T04:11:29;13.20;86.50
64484;DHT22;50862;51.642;7.964;2022-09-01T04:13:58;13.10;89.40
64484;DHT22;50862;51.642;7.964;2022-09-01T04:16:30;12.90;86.00
64484;DHT22;50862;51.642;7.964;2022-09-01T04:19:20;13.40;86.90
64484;DHT22;50862;51.642;7.964;2022-09-01T04:21:54;13.10;87.80
64484;DHT22;50862;51.642;7.964;2022-09-01T04:24:23;12.90;87.20
64484;DHT22;50862;51.642;7.964;2022-09-01T04:26:55;13.10;87.20
64484;DHT22;50862;51.642;7.964;2022-09-01T04:29:25;13.10;87.30
64484;DHT22;50862;51.642;7.964;2022-09-01T04:31:56;12.80;88.00
64484;DHT22;50862;51.642;7.964;2022-09-01T04:34:28;13.00;89.00
64484;DHT22;50862;51.642;7.964;2022-09-01T04:37:07;13.20;87.60
64484;DHT22;50862;51.642;7.964;2022-09-01T04:42:05;12.90;88.30
64484;DHT22;50862;51.642;7.964;2022-09-01T04:44:35;12.70;90.20
64484;DHT22;50862;51.642;7.964;2022-09-01T04:47:05;12.30;90.20
64484;DHT22;50862;51.642;7.964;2022-09-01T04:49:42;12.40;89.50
64484;DHT22;50862;51.642;7.964;2022-09-01T04:57:10;12.70;92.00
64484;DHT22;50862;51.642;7.964;2022-09-01T05:02:09;12.40;91.00
64484;DHT22;50862;51.642;7.964;2022-09-01T05:04:38;12.90;91.40
64484;DHT22;50862;51.642;7.964;2022-09-01T05:12:11;12.90;92.30
64484;DHT22;50862;51.642;7.964;2022-09-01T05:14:43;12.50;91.80
64484;DHT22;50862;51.642;7.964;2022-09-01T05:17:16;12.50;91.80
64484;DHT22;50862;51.642;7.964;2022-09-01T05:19:46;12.50;91.80
64484;DHT22;50862;51.642;7.964;2022-09-01T05:22:17;12.90;92.00
64484;DHT22;50862;51.642;7.964;2022-09-01T05:27:21;12.20;93.50
64484;DHT22;50862;51.642;7.964;2022-09-01T05:32:20;13.00;93.60
64484;DHT22;50862;51.642;7.964;2022-09-01T05:34:51;12.90;93.40
64484;DHT22;50862;51.642;7.964;2022-09-01T05:37:20;12.90;93.50
64484;DHT22;50862;51.642;7.964;2022-09-01T05:42:18;12.30;94.90
64484;DHT22;50862;51.642;7.964;2022-09-01T05:44:47;12.20;95.10
64484;DHT22;50862;51.642;7.964;2022-09-01T05:47:19;12.60;94.10
64484;DHT22;50862;51.642;7.964;2022-09-01T05:54:52;12.60;95.20
64484;DHT22;50862;51.642;7.964;2022-09-01T05:57:25;12.70;97.00
64484;DHT22;50862;51.642;7.964;2022-09-01T06:00:03;12.70;95.20
64484;DHT22;50862;51.642;7.964;2022-09-01T06:02:38;13.10;96.90
64484;DHT22;50862;51.642;7.964;2022-09-01T06:05:08;13.30;95.20
64484;DHT22;50862;51.642;7.964;2022-09-01T06:07:36;13.20;96.50
64484;DHT22;50862;51.642;7.964;2022-09-01T06:10:07;13.40;95.20
64484;DHT22;50862;51.642;7.964;2022-09-01T06:15:07;13.50;94.70
64484;DHT22;50862;51.642;7.964;2022-09-01T06:17:43;13.60;95.10
64484;DHT22;50862;51.642;7.964;2022-09-01T06:20:12;13.70;94.90
64484;DHT22;50862;51.642;7.964;2022-09-01T06:22:44;14.40;96.80
64484;DHT22;50862;51.642;7.964;2022-09-01T06:25:13;13.20;95.30
64484;DHT22;50862;51.642;7.964;2022-09-01T06:27:45;14.10;94.20
64484;DHT22;50862;51.642;7.964;2022-09-01T06:30:15;14.10;92.60
64484;DHT22;50862;51.642;7.964;2022-09-01T06:32:51;14.10;90.30
64484;DHT22;50862;51.642;7.964;2022-09-01T06:35:21;14.40;91.10
64484;DHT22;50862;51.642;7.964;2022-09-01T06:37:51;14.70;90.20
64484;DHT22;50862;51.642;7.964;2022-09-01T06:42:49;15.30;87.20
64484;DHT22;50862;51.642;7.964;2022-09-01T06:45:20;15.00;85.60
64484;DHT22;50862;51.642;7.964;2022-09-01T06:47:49;15.40;86.10
64484;DHT22;50862;51.642;7.964;2022-09-01T06:50:27;14.70;85.80
64484;DHT22;50862;51.642;7.964;2022-09-01T06:56:05;15.40;81.90
64484;DHT22;50862;51.642;7.964;2022-09-01T06:58:35;15.40;81.90
64484;DHT22;50862;51.642;7.964;2022-09-01T07:01:08;15.60;80.80
64484;DHT22;50862;51.642;7.964;2022-09-01T07:03:42;15.80;82.30
64484;DHT22;50862;51.642;7.964;2022-09-01T07:06:12;15.70;79.10
64484;DHT22;50862;51.642;7.964;2022-09-01T07:09:01;15.70;78.70
64484;DHT22;50862;51.642;7.964;2022-09-01T07:11:46;16.20;81.60
64484;DHT22;50862;51.642;7.964;2022-09-01T07:14:34;15.70;80.00
64484;DHT22;50862;51.642;7.964;2022-09-01T07:19:52;15.90;76.50
64484;DHT22;50862;51.642;7.964;2022-09-01T07:22:23;16.50;76.40
64484;DHT22;50862;51.642;7.964;2022-09-01T07:25:11;16.00;75.90
64484;DHT22;50862;51.642;7.964;2022-09-01T07:27:40;17.10;78.70
64484;DHT22;50862;51.642;7.964;2022-09-01T07:30:17;17.40;77.00
64484;DHT22;50862;51.642;7.964;2022-09-01T07:35:21;16.90;75.00
64484;DHT22;50862;51.642;7.964;2022-09-01T07:37:52;17.40;75.30
64484;DHT22;50862;51.642;7.964;2022-09-01T07:43:30;17.50;75.20
64484;DHT22;50862;51.642;7.964;2022-09-01T07:46:02;17.60;76.70
64484;DHT22;50862;51.642;7.964;2022-09-01T07:48:53;17.20;74.80
64484;DHT22;50862;51.642;7.964;2022-09-01T07:51:41;17.70;75.10
64484;DHT22;50862;51.642;7.964;2022-09-01T07:54:11;18.50;73.30
64484;DHT22;50862;51.642;7.964;2022-09-01T08:01:41;18.20;73.90
64484;DHT22;50862;51.642;7.964;2022-09-01T08:06:38;18.00;73.10
64484;DHT22;50862;51.642;7.964;2022-09-01T08:09:07;17.90;71.90
64484;DHT22;50862;51.642;7.964;2022-09-01T08:11:39;18.90;72.40
64484;DHT22;50862;51.642;7.964;2022-09-01T08:14:28;17.90;71.70
64484;DHT22;50862;51.642;7.964;2022-09-01T08:17:00;17.90;70.60
64484;DHT22;50862;51.642;7.964;2022-09-01T08:19:43;19.10;71.00
64484;DHT22;50862;51.642;7.964;2022-09-01T08:22:13;18.60;68.80
64484;DHT22;50862;51.642;7.964;2022-09-01T08:24:41;18.60;70.00
64484;DHT22;50862;51.642;7.964;2022-09-01T08:27:11;18.80;69.90
64484;DHT22;50862;51.642;7.964;2022-09-01T08:32:09;18.60;68.20
64484;DHT22;50862;51.642;7.964;2022-09-01T08:34:37;19.40;68.50
64484;DHT22;50862;51.642;7.964;2022-09-01T08:37:06;19.50;68.00
64484;DHT22;50862;51.642;7.964;2022-09-01T08:39:34;19.50;67.50
64484;DHT22;50862;51.642;7.964;2022-09-01T08:42:10;20.20;66.70
64484;DHT22;50862;51.642;7.964;2022-09-01T08:44:52;21.20;63.40
64484;DHT22;50862;51.642;7.964;2022-09-01T08:47:23;22.30;60.10
64484;DHT22;50862;51.642;7.964;2022-09-01T08:50:10;22.80;58.90
64484;DHT22;50862;51.642;7.964;2022-09-01T08:52:43;23.30;56.20
64484;DHT22;50862;51.642;7.964;2022-09-01T08:55:15;23.60;56.40
64484;DHT22;50862;51.642;7.964;2022-09-01T08:57:47;23.90;56.00
64484;DHT22;50862;51.642;7.964;2022-09-01T09:00:27;23.90;55.10
64484;DHT22;50862;51.642;7.964;2022-09-01T09:03:06;24.20;55.50
64484;DHT22;50862;51.642;7.964;2022-09-01T09:05:48;24.20;53.60
64484;DHT22;50862;51.642;7.964;2022-09-01T09:11:45;23.90;54.70
64484;DHT22;50862;51.642;7.964;2022-09-01T09:14:26;23.60;55.50
64484;DHT22;50862;51.642;7.964;2022-09-01T09:16:56;23.80;55.10
64484;DHT22;50862;51.642;7.964;2022-09-01T09:19:27;23.90;54.70
64484;DHT22;50862;51.642;7.964;2022-09-01T09:21:58;23.80;55.00
64484;DHT22;50862;51.642;7.964;2022-09-01T09:24:30;23.70;55.10
64484;DHT22;50862;51.642;7.964;2022-09-01T09:27:17;23.60;55.40
64484;DHT22;50862;51.642;7.964;2022-09-01T09:29:48;23.70;55.80
64484;DHT22;50862;51.642;7.964;2022-09-01T09:32:20;23.90;55.80
64484;DHT22;50862;51.642;7.964;2022-09-01T09:35:17;24.20;55.30
64484;DHT22;50862;51.642;7.964;2022-09-01T09:37:46;24.40;54.90
64484;DHT22;50862;51.642;7.964;2022-09-01T09:40:16;24.70;54.40
64484;DHT22;50862;51.642;7.964;2022-09-01T09:43:02;25.00;53.80
64484;DHT22;50862;51.642;7.964;2022-09-01T09:45:33;25.10;53.20
64484;DHT22;50862;51.642;7.964;2022-09-01T09:48:07;25.10;53.40
64484;DHT22;50862;51.642;7.964;2022-09-01T09:50:38;24.90;53.50
64484;DHT22;50862;51.642;7.964;2022-09-01T09:53:16;24.80;54.20
64484;DHT22;50862;51.642;7.964;2022-09-01T09:55:54;24.80;53.90
64484;DHT22;50862;51.642;7.964;2022-09-01T09:58:26;24.80;53.00
64484;DHT22;50862;51.642;7.964;2022-09-01T10:01:10;24.70;51.70
64484;DHT22;50862;51.642;7.964;2022-09-01T10:03:46;24.60;52.00
64484;DHT22;50862;51.642;7.964;2022-09-01T10:06:30;24.60;53.20
64484;DHT22;50862;51.642;7.964;2022-09-01T10:09:00;24.60;52.80
64484;DHT22;50862;51.642;7.964;2022-09-01T10:11:32;24.80;51.90
64484;DHT22;50862;51.642;7.964;2022-09-01T10:14:11;24.40;51.80
64484;DHT22;50862;51.642;7.964;2022-09-01T10:17:03;24.30;52.80
64484;DHT22;50862;51.642;7.964;2022-09-01T10:19:35;24.30;52.30
64484;DHT22;50862;51.642;7.964;2022-09-01T10:22:07;24.30;52.20
64484;DHT22;50862;51.642;7.964;2022-09-01T10:24:37;24.40;51.70
64484;DHT22;50862;51.642;7.964;2022-09-01T10:27:17;24.40;51.30
64484;DHT22;50862;51.642;7.964;2022-09-01T10:29:49;24.20;51.40
64484;DHT22;50862;51.642;7.964;2022-09-01T10:32:39;24.10;51.20
64484;DHT22;50862;51.642;7.964;2022-09-01T10:35:24;23.70;50.80
64484;DHT22;50862;51.642;7.964;2022-09-01T10:37:54;23.50;51.50
64484;DHT22;50862;51.642;7.964;2022-09-01T10:40:43;23.30;52.10
64484;DHT22;50862;51.642;7.964;2022-09-01T10:43:40;23.40;51.80
64484;DHT22;50862;51.642;7.964;2022-09-01T10:52:57;24.00;49.20
64484;DHT22;50862;51.642;7.964;2022-09-01T10:55:30;23.90;50.00
64484;DHT22;50862;51.642;7.964;2022-09-01T11:13:22;23.50;48.70
64484;DHT22;50862;51.642;7.964;2022-09-01T11:15:52;23.40;48.10
64484;DHT22;50862;51.642;7.964;2022-09-01T11:18:28;23.40;48.50
64484;DHT22;50862;51.642;7.964;2022-09-01T11:21:13;23.80;48.00
64484;DHT22;50862;51.642;7.964;2022-09-01T11:23:41;24.20;47.90
64484;DHT22;50862;51.642;7.964;2022-09-01T11:29:49;24.40;45.20
64484;DHT22;50862;51.642;7.964;2022-09-01T11:32:23;24.40;44.70
64484;DHT22;50862;51.642;7.964;2022-09-01T11:34:54;24.50;44.30
64484;DHT22;50862;51.642;7.964;2022-09-01T11:37:23;24.50;44.30
64484;DHT22;50862;51.642;7.964;2022-09-01T11:39:54;24.70;43.60
64484;DHT22;50862;51.642;7.964;2022-09-01T11:42:26;24.50;43.10
64484;DHT22;50862;51.642;7.964;2022-09-01T11:45:01;24.10;43.60
64484;DHT22;50862;51.642;7.964;2022-09-01T11:47:36;23.80;44.10
64484;DHT22;50862;51.642;7.964;2022-09-01T11:50:07;23.90;45.00
64484;DHT22;50862;51.642;7.964;2022-09-01T11:52:52;24.10;44.10
64484;DHT22;50862;51.642;7.964;2022-09-01T11:55:29;24.30;44.40
64484;DHT22;50862;51.642;7.964;2022-09-01T11:57:57;24.50;43.40
64484;DHT22;50862;51.642;7.964;2022-09-01T12:00:29;24.60;43.50
64484;DHT22;50862;51.642;7.964;2022-09-01T12:02:58;24.80;43.30
64484;DHT22;50862;51.642;7.964;2022-09-01T12:05:30;24.70;42.70
64484;DHT22;50862;51.642;7.964;2022-09-01T12:08:01;24.60;42.80
64484;DHT22;50862;51.642;7.964;2022-09-01T12:10:32;24.50;43.50
64484;DHT22;50862;51.642;7.964;2022-09-01T12:13:03;24.70;42.70
64484;DHT22;50862;51.642;7.964;2022-09-01T12:15:36;24.70;42.70
64484;DHT22;50862;51.642;7.964;2022-09-01T12:18:30;25.00;42.70
64484;DHT22;50862;51.642;7.964;2022-09-01T12:20:59;25.20;41.60
64484;DHT22;50862;51.642;7.964;2022-09-01T12:23:30;25.10;41.10
64484;DHT22;50862;51.642;7.964;2022-09-01T12:26:00;24.90;41.40
64484;DHT22;50862;51.642;7.964;2022-09-01T12:28:31;24.80;41.60
64484;DHT22;50862;51.642;7.964;2022-09-01T12:31:04;24.90;41.20
64484;DHT22;50862;51.642;7.964;2022-09-01T12:33:33;24.90;41.30
64484;DHT22;50862;51.642;7.964;2022-09-01T12:36:23;24.90;41.40
64484;DHT22;50862;51.642;7.964;2022-09-01T12:38:52;24.90;41.00
64484;DHT22;50862;51.642;7.964;2022-09-01T12:41:25;25.00;41.00
64484;DHT22;50862;51.642;7.964;2022-09-01T12:43:54;25.00;41.00
64484;DHT22;50862;51.642;7.964;2022-09-01T12:46:44;25.10;40.40
64484;DHT22;50862;51.642;7.964;2022-09-01T12:49:16;25.10;40.40
64484;DHT22;50862;51.642;7.964;2022-09-01T12:51:46;25.00;40.10
64484;DHT22;50862;51.642;7.964;2022-09-01T12:54:14;25.20;40.80
64484;DHT22;50862;51.642;7.964;2022-09-01T12:56:47;25.30;40.90
64484;DHT22;50862;51.642;7.964;2022-09-01T12:59:21;25.60;40.50
64484;DHT22;50862;51.642;7.964;2022-09-01T13:02:27;25.60;40.20
64484;DHT22;50862;51.642;7.964;2022-09-01T13:05:18;25.60;39.30
64484;DHT22;50862;51.642;7.964;2022-09-01T13:07:46;25.40;39.00
64484;DHT22;50862;51.642;7.964;2022-09-01T13:10:14;25.50;39.70
64484;DHT22;50862;51.642;7.964;2022-09-01T13:12:43;25.30;39.20
64484;DHT22;50862;51.642;7.964;2022-09-01T13:15:12;25.20;38.80
64484;DHT22;50862;51.642;7.964;2022-09-01T13:17:46;25.10;39.50
64484;DHT22;50862;51.642;7.964;2022-09-01T13:20:14;25.20;38.80
64484;DHT22;50862;51.642;7.964;2022-09-01T13:22:43;25.30;39.60
64484;DHT22;50862;51.642;7.964;2022-09-01T13:25:11;25.30;39.10
64484;DHT22;50862;51.642;7.964;2022-09-01T13:27:41;25.30;39.00
64484;DHT22;50862;51.642;7.964;2022-09-01T13:30:11;25.40;38.70
64484;DHT22;50862;51.642;7.964;2022-09-01T13:32:41;25.30;38.50
64484;DHT22;50862;51.642;7.964;2022-09-01T13:35:31;25.40;38.80
64484;DHT22;50862;51.642;7.964;2022-09-01T13:37:59;25.30;39.10
64484;DHT22;50862;51.642;7.964;2022-09-01T13:40:28;25.30;38.90
64484;DHT22;50862;51.642;7.964;2022-09-01T13:42:56;25.10;39.60
64484;DHT22;50862;51.642;7.964;2022-09-01T13:45:25;25.10;39.90
64484;DHT22;50862;51.642;7.964;2022-09-01T13:47:54;25.20;40.10
64484;DHT22;50862;51.642;7.964;2022-09-01T13:50:45;25.40;39.10
64484;DHT22;50862;51.642;7.964;2022-09-01T13:53:35;25.40;38.30
64484;DHT22;50862;51.642;7.964;2022-09-01T13:56:03;25.40;38.10
64484;DHT22;50862;51.642;7.964;2022-09-01T13:58:32;25.40;38.40
64484;DHT22;50862;51.642;7.964;2022-09-01T14:01:00;25.40;39.00
64484;DHT22;50862;51.642;7.964;2022-09-01T14:03:28;25.40;38.20
64484;DHT22;50862;51.642;7.964;2022-09-01T14:05:59;25.40;38.00
64484;DHT22;50862;51.642;7.964;2022-09-01T14:08:27;25.40;38.30
64484;DHT22;50862;51.642;7.964;2022-09-01T14:10:56;25.50;38.00
64484;DHT22;50862;51.642;7.964;2022-09-01T14:13:25;25.40;39.20
64484;DHT22;50862;51.642;7.964;2022-09-01T14:15:53;25.40;38.50
64484;DHT22;50862;51.642;7.964;2022-09-01T14:18:22;27.20;39.50
64484;DHT22;50862;51.642;7.964;2022-09-01T14:20:51;25.30;38.60
64484;DHT22;50862;51.642;7.964;2022-09-01T14:23:21;25.40;38.80
64484;DHT22;50862;51.642;7.964;2022-09-01T14:25:50;25.40;38.50
64484;DHT22;50862;51.642;7.964;2022-09-01T14:28:20;25.30;38.40
64484;DHT22;50862;51.642;7.964;2022-09-01T14:30:50;25.40;38.90
64484;DHT22;50862;51.642;7.964;2022-09-01T14:33:17;25.40;38.70
64484;DHT22;50862;51.642;7.964;2022-09-01T14:35:50;25.40;39.10
64484;DHT22;50862;51.642;7.964;2022-09-01T14:38:18;25.30;38.90
64484;DHT22;50862;51.642;7.964;2022-09-01T14:40:48;25.10;39.10
64484;DHT22;50862;51.642;7.964;2022-09-01T14:43:17;25.10;39.20
64484;DHT22;50862;51.642;7.964;2022-09-01T14:45:46;25.00;39.30
64484;DHT22;50862;51.642;7.964;2022-09-01T14:48:15;25.10;38.90
64484;DHT22;50862;51.642;7.964;2022-09-01T14:50:48;25.00;38.50
64484;DHT22;50862;51.642;7.964;2022-09-01T14:53:17;25.20;38.40
64484;DHT22;50862;51.642;7.964;2022-09-01T14:55:45;25.10;38.30
64484;DHT22;50862;51.642;7.964;2022-09-01T14:58:19;24.90;38.70
64484;DHT22;50862;51.642;7.964;2022-09-01T15:00:48;24.90;38.70
64484;DHT22;50862;51.642;7.964;2022-09-01T15:03:16;24.90;38.80
64484;DHT22;50862;51.642;7.964;2022-09-01T15:05:48;24.90;39.10
64484;DHT22;50862;51.642;7.964;2022-09-01T15:08:17;25.10;39.20
64484;DHT22;50862;51.642;7.964;2022-09-01T15:10:45;25.10;38.70
64484;DHT22;50862;51.642;7.964;2022-09-01T15:13:14;25.20;38.80
64484;DHT22;50862;51.642;7.964;2022-09-01T15:15:44;25.20;39.00
64484;DHT22;50862;51.642;7.964;2022-09-01T15:18:12;25.30;39.00
64484;DHT22;50862;51.642;7.964;2022-09-01T15:20:41;25.10;38.10
64484;DHT22;50862;51.642;7.964;2022-09-01T15:23:14;25.10;38.30
64484;DHT22;50862;51.642;7.964;2022-09-01T15:25:42;25.10;38.70
64484;DHT22;50862;51.642;7.964;2022-09-01T15:28:10;24.90;38.90
64484;DHT22;50862;51.642;7.964;2022-09-01T15:30:39;24.90;39.10
64484;DHT22;50862;51.642;7.964;2022-09-01T15:33:12;24.90;39.70
64484;DHT22;50862;51.642;7.964;2022-09-01T15:35:42;24.90;39.90
64484;DHT22;50862;51.642;7.964;2022-09-01T15:38:11;24.50;40.70
64484;DHT22;50862;51.642;7.964;2022-09-01T15:40:46;25.00;41.60
64484;DHT22;50862;51.642;7.964;2022-09-01T15:43:25;25.00;41.90
64484;DHT22;50862;51.642;7.964;2022-09-01T15:45:54;24.90;41.80
64484;DHT22;50862;51.642;7.964;2022-09-01T15:48:26;24.90;41.80
64484;DHT22;50862;51.642;7.964;2022-09-01T15:53:47;25.10;41.20
64484;DHT22;50862;51.642;7.964;2022-09-01T15:56:16;25.20;40.90
64484;DHT22;50862;51.642;7.964;2022-09-01T15:58:45;25.30;41.10
64484;DHT22;50862;51.642;7.964;2022-09-01T16:01:29;25.30;41.20
64484;DHT22;50862;51.642;7.964;2022-09-01T16:03:59;25.30;41.30
64484;DHT22;50862;51.642;7.964;2022-09-01T16:06:28;24.90;41.60
64484;DHT22;50862;51.642;7.964;2022-09-01T16:08:56;24.70;42.30
64484;DHT22;50862;51.642;7.964;2022-09-01T16:11:24;24.40;42.50
64484;DHT22;50862;51.642;7.964;2022-09-01T16:13:53;24.40;42.70
64484;DHT22;50862;51.642;7.964;2022-09-01T16:16:35;24.40;42.70
64484;DHT22;50862;51.642;7.964;2022-09-01T16:19:17;24.20;42.90
64484;DHT22;50862;51.642;7.964;2022-09-01T16:21:53;24.10;42.70
64484;DHT22;50862;51.642;7.964;2022-09-01T16:24:26;24.10;43.00
64484;DHT22;50862;51.642;7.964;2022-09-01T16:26:55;24.10;42.80
64484;DHT22;50862;51.642;7.964;2022-09-01T16:29:31;24.10;43.10
64484;DHT22;50862;51.642;7.964;2022-09-01T16:32:01;24.00;43.70
64484;DHT22;50862;51.642;7.964;2022-09-01T16:34:32;24.00;43.30
64484;DHT22;50862;51.642;7.964;2022-09-01T16:37:04;24.00;43.00
64484;DHT22;50862;51.642;7.964;2022-09-01T16:39:41;23.90;43.20
64484;DHT22;50862;51.642;7.964;2022-09-01T16:42:20;23.80;43.50
64484;DHT22;50862;51.642;7.964;2022-09-01T16:45:02;23.80;43.40
64484;DHT22;50862;51.642;7.964;2022-09-01T16:47:50;23.70;43.60
64484;DHT22;50862;51.642;7.964;2022-09-01T16:50:29;23.70;43.60
64484;DHT22;50862;51.642;7.964;2022-09-01T16:53:09;23.70;43.40
64484;DHT22;50862;51.642;7.964;2022-09-01T16:55:58;23.60;43.50
64484;DHT22;50862;51.642;7.964;2022-09-01T16:58:46;23.50;43.50
64484;DHT22;50862;51.642;7.964;2022-09-01T17:01:26;23.50;43.80
64484;DHT22;50862;51.642;7.964;2022-09-01T17:04:12;23.60;43.50
64484;DHT22;50862;51.642;7.964;2022-09-01T17:06:48;23.50;43.40
64484;DHT22;50862;51.642;7.964;2022-09-01T17:09:25;23.40;43.40
64484;DHT22;50862;51.642;7.964;2022-09-01T17:12:02;23.30;43.40
64484;DHT22;50862;51.642;7.964;2022-09-01T17:14:41;23.20;43.50
64484;DHT22;50862;51.642;7.964;2022-09-01T17:17:16;23.20;43.10
64484;DHT22;50862;51.642;7.964;2022-09-01T17:19:47;23.20;43.30
64484;DHT22;50862;51.642;7.964;2022-09-01T17:22:20;23.20;43.10
64484;DHT22;50862;51.642;7.964;2022-09-01T17:24:52;23.10;43.50
64484;DHT22;50862;51.642;7.964;2022-09-01T17:27:28;23.20;43.20
64484;DHT22;50862;51.642;7.964;2022-09-01T17:29:58;23.10;43.60
64484;DHT22;50862;51.642;7.964;2022-09-01T17:32:42;23.20;43.60
64484;DHT22;50862;51.642;7.964;2022-09-01T17:35:21;23.20;43.30
64484;DHT22;50862;51.642;7.964;2022-09-01T17:38:00;23.10;43.10
64484;DHT22;50862;51.642;7.964;2022-09-01T17:40:52;23.10;43.30
64484;DHT22;50862;51.642;7.964;2022-09-01T17:43:27;23.00;43.50
64484;DHT22;50862;51.642;7.964;2022-09-01T17:46:02;22.90;43.60
64484;DHT22;50862;51.642;7.964;2022-09-01T17:48:40;22.70;43.90
64484;DHT22;50862;51.642;7.964;2022-09-01T17:51:18;22.70;43.90
64484;DHT22;50862;51.642;7.964;2022-09-01T17:53:56;22.60;44.10
64484;DHT22;50862;51.642;7.964;2022-09-01T17:56:36;22.50;44.20
64484;DHT22;50862;51.642;7.964;2022-09-01T17:59:12;22.60;44.70
64484;DHT22;50862;51.642;7.964;2022-09-01T18:01:48;22.30;44.60
64484;DHT22;50862;51.642;7.964;2022-09-01T18:04:49;22.20;44.90
64484;DHT22;50862;51.642;7.964;2022-09-01T18:07:48;22.10;45.00
64484;DHT22;50862;51.642;7.964;2022-09-01T18:10:25;22.00;45.20
64484;DHT22;50862;51.642;7.964;2022-09-01T18:12:59;21.90;45.20
64484;DHT22;50862;51.642;7.964;2022-09-01T18:15:39;21.30;45.10
64484;DHT22;50862;51.642;7.964;2022-09-01T18:18:25;21.70;45.60
64484;DHT22;50862;51.642;7.964;2022-09-01T18:20:58;21.60;45.80
64484;DHT22;50862;51.642;7.964;2022-09-01T18:23:31;21.60;46.10
64484;DHT22;50862;51.642;7.964;2022-09-01T18:26:09;21.40;46.50
64484;DHT22;50862;51.642;7.964;2022-09-01T18:28:41;21.40;46.60
64484;DHT22;50862;51.642;7.964;2022-09-01T18:31:28;21.20;46.60
64484;DHT22;50862;51.642;7.964;2022-09-01T18:34:06;21.20;46.80